Terminal Aerodrome Forecast
Issued by NWS

Home | Current Version | Previous Version | Text Only | Print | Product List | Glossary On
Versions: 1 2 3 4 5 6 7 8 9 10 11 12 13 14 15 16 17 18 19 20
000
FTUS43 KIWX 240125 AAA
TAFSBN
TAF AMD
KSBN 240125Z 2401/2424 01006KT P6SM VCTS SCT025CB OVC035
     FM240200 31010G25KT 4SM TSRA BR BKN025CB
     FM240400 20005KT P6SM VCTS BKN040CB
     FM241000 19004KT 5SM BR BKN100
     FM241300 21010KT P6SM BKN150=

USA.gov is the U.S. government's official web portal to all federal, state and local government web resources and services.